Athens, GA (30604)

2:15 AM EST on January 31, 2015 (GMT -0500)
Tallassee King | Change Station
CLOSE
Current Station
Personal Weather Station
Location: Athens, GA
Elevation: 860 ft
Nearby Weather Stations

Elev 860 ft 34.00 °N, 83.48 °W | Updated 4 seconds ago

Clear
Clear
30.6 °F
Feels Like 31 °F
N
0.0
Wind Variable Wind from SW
Gusts 0.0 mph

Today
High -- | Low -- °F
--% Chance of Precip.
Yesterday
High -- | Low -- °F
Precip. -- in
7:31 AM 6:03 PM
Waxing Gibbous, 88% visible
Pressure 30.34 in
Visibility 10.0 miles
Clouds Clear
Windchill 31 °F
Dew Point 21 °F
Humidity 67%
Rainfall 0.00 in
Snow Depth Not available.
UV 0 out of 12
Pollen 3.20 out of 12
Air Quality Not available.
Flu Activity Not available.
METAR KWDR 310655Z AUTO 32003KT 10SM CLR 01/M05 A3034 RMK AO1

More Conditions Fewer Conditions

Pressure 30.34 in
Visibility 10.0 miles
Clouds Clear
Windchill 31 °F
Dew Point 21 °F
Humidity 67%
Rainfall 0.00 in
Snow Depth Not available.
UV 0 out of 12
Pollen 3.20 out of 12
Air Quality Not available.
Flu Activity Not available.
METAR KWDR 310655Z AUTO 32003KT 10SM CLR 01/M05 A3034 RMK AO1

More Conditions Fewer Conditions

10-Day Weather Forecast

Almanac

Astronomy

Jan. 31, 2015 Rise Set
Actual Time
Civil Twilight
Nautical Twilight
Astronomical Twilight
Moon
Length of Visible Light
Length of Day
Tomorrow will be .
, % of the Moon is Illuminated

Today's Extremes

State Highs State Lows

Community

WunderPhotos

Upload Photos

1,792,014 photos uploaded!

WunderBlogs® & News

Nearby

Air Quality

  Air Quality AQ Index Pollutant
Not available.

Snow Depth

Station Depth Elevation

Earthquake Activity

City Distance Mag. Time & Date
Minimum magnitude displayed is 2.5.

Coastal Water Temperatures

Place Temperature

Nearby Weather Stations